.
WxDataArchive / Data Records for 2014-06-10
2014-06-09 June 2014 2014-06-11

Data Records for Tuesday, 10 June 2014

Time	Temp	Chill	HIndex	Humid	Dewpt	 Wind 	HiWind	WindDir	Rain 	Barom
-----	----	-----	------	-----	-----	------	------	-------	-----	-----
00:00	62.6	62.6	62.6	85	58.0	0	0	---	0.00	29.902 
00:05	62.4	62.4	62.4	85	57.8	0	0	---	0.00	29.902 
00:10	62.4	62.4	62.4	86	58.2	0	0	---	0.00	29.902 
00:15	62.3	62.3	62.3	86	58.1	0	0	---	0.00	29.903 
00:20	62.1	62.1	62.1	87	58.2	0	0	---	0.00	29.903 
00:25	62.0	62.0	62.0	87	58.1	0	0	---	0.00	29.903 
00:30	61.8	61.8	61.8	87	57.9	0	0	---	0.00	29.897 
00:35	61.6	61.6	61.6	87	57.7	0	0	---	0.00	29.897 
00:40	61.5	61.5	61.5	87	57.6	0	0	---	0.00	29.897 
00:45	61.3	61.3	61.3	88	57.7	0	0	---	0.00	29.896 
00:50	61.3	61.3	61.3	88	57.7	0	0	---	0.00	29.896 
00:55	61.2	61.2	61.2	88	57.6	0	0	---	0.00	29.896 
01:00	61.2	61.2	61.2	88	57.6	0	0	---	0.00	29.896 
01:05	61.0	61.0	61.0	88	57.4	0	0	---	0.00	29.896 
01:10	60.9	60.9	60.9	88	57.3	0	0	---	0.00	29.896 
01:15	60.9	60.9	60.9	88	57.3	0	0	---	0.00	29.896 
01:20	60.7	60.7	60.7	88	57.1	0	0	---	0.00	29.896 
01:25	60.7	60.7	60.7	89	57.4	0	0	---	0.00	29.896 
01:30	60.7	60.7	60.7	89	57.4	0	0	---	0.00	29.888 
01:35	60.5	60.5	60.5	89	57.2	0	0	---	0.00	29.888 
01:40	60.5	60.5	60.5	89	57.2	0	0	---	0.00	29.888 
01:45	60.4	60.4	60.4	89	57.1	0	0	---	0.00	29.884 
01:50	60.2	60.2	60.2	90	57.3	0	0	---	0.00	29.884 
01:55	60.2	60.2	60.2	90	57.3	0	0	---	0.00	29.884 
02:00	60.1	60.1	60.1	90	57.2	0	0	---	0.00	29.878 
02:05	59.9	59.9	59.9	90	57.0	0	0	---	0.00	29.878 
02:10	59.8	59.8	59.8	90	56.9	0	0	---	0.00	29.878 
02:15	59.6	59.6	59.6	90	56.7	0	0	---	0.00	29.880 
02:20	59.6	59.6	59.6	90	56.7	0	0	---	0.00	29.880 
02:25	59.5	59.5	59.5	91	56.9	0	0	---	0.00	29.880 
02:30	59.5	59.5	59.5	91	56.9	0	0	---	0.00	29.889 
02:35	59.3	59.3	59.3	91	56.7	0	0	---	0.00	29.889 
02:40	59.3	59.3	59.3	91	56.7	0	0	---	0.00	29.889 
02:45	59.2	59.2	59.2	91	56.6	0	0	---	0.00	29.894 
02:50	59.2	59.2	59.2	91	56.6	0	0	---	0.00	29.894 
02:55	59.0	59.0	59.0	91	56.4	0	0	---	0.00	29.894 
03:00	59.0	59.0	59.0	91	56.4	0	0	---	0.00	29.894 
03:05	59.0	59.0	59.0	91	56.4	0	0	---	0.00	29.894 
03:10	59.0	59.0	59.0	92	56.7	0	0	---	0.00	29.894 
03:15	59.0	59.0	59.0	92	56.7	0	0	---	0.00	29.888 
03:20	59.0	59.0	59.0	92	56.7	0	0	---	0.00	29.888 
03:25	59.0	59.0	59.0	92	56.7	0	0	---	0.00	29.888 
03:30	59.2	59.2	59.2	92	56.9	0	0	---	0.00	29.888 
03:35	59.2	59.2	59.2	92	56.9	0	0	---	0.00	29.888 
03:40	59.2	59.2	59.2	92	56.9	0	0	---	0.00	29.888 
03:45	59.2	59.2	59.2	92	56.9	0	0	---	0.00	29.882 
03:50	59.2	59.2	59.2	92	56.9	0	0	---	0.00	29.882 
03:55	59.2	59.2	59.2	92	56.9	0	0	---	0.00	29.882 
04:00	59.2	59.2	59.2	92	56.9	0	0	---	0.00	29.885 
04:05	59.2	59.2	59.2	92	56.9	0	0	---	0.00	29.885 
04:10	59.2	59.2	59.2	92	56.9	0	0	---	0.00	29.885 
04:15	59.0	59.0	59.0	92	56.7	0	0	---	0.00	29.885 
04:20	59.0	59.0	59.0	92	56.7	0	0	---	0.00	29.885 
04:25	59.0	59.0	59.0	92	56.7	0	0	---	0.00	29.885 
04:30	58.9	58.9	58.9	92	56.6	0	0	---	0.00	29.881 
04:35	58.9	58.9	58.9	92	56.6	0	0	---	0.00	29.881 
04:40	58.7	58.7	58.7	92	56.4	0	0	---	0.00	29.881 
04:45	58.7	58.7	58.7	92	56.4	0	0	---	0.00	29.880 
04:50	58.6	58.6	58.6	92	56.3	0	0	---	0.00	29.880 
04:55	58.4	58.4	58.4	92	56.1	0	0	---	0.00	29.880 
05:00	58.4	58.4	58.4	92	56.1	0	0	---	0.00	29.878 
05:05	58.3	58.3	58.3	92	56.0	0	0	---	0.00	29.878 
05:10	58.3	58.3	58.3	92	56.0	0	0	---	0.00	29.878 
05:15	58.1	58.1	58.1	92	55.8	0	0	---	0.00	29.870 
05:20	58.0	58.0	58.0	92	55.7	0	0	---	0.00	29.870 
05:25	58.0	58.0	58.0	92	55.7	0	0	---	0.00	29.870 
05:30	57.8	57.8	57.8	92	55.5	0	0	---	0.00	29.868 
05:35	57.8	57.8	57.8	92	55.5	0	0	---	0.00	29.868 
05:40	57.8	57.8	57.8	92	55.5	0	0	---	0.00	29.868 
05:45	58.0	58.0	58.0	93	56.0	0	1	90	0.00	29.873 
05:50	58.3	58.3	58.3	92	56.0	0	0	---	0.00	29.873 
05:55	58.4	58.4	58.4	92	56.1	0	0	---	0.00	29.873 
06:00	58.7	58.7	58.7	92	56.4	0	0	---	0.00	29.879 
06:05	58.9	58.9	58.9	91	56.3	0	1	90	0.00	29.879 
06:10	59.0	59.0	59.0	91	56.4	0	1	90	0.00	29.879 
06:15	59.2	59.2	59.2	90	56.3	0	1	90	0.00	29.887 
06:20	59.2	59.2	59.2	89	56.0	0	2	90	0.00	29.887 
06:25	59.3	59.3	59.3	88	55.7	0	1	90	0.00	29.887 
06:30	59.6	59.6	59.6	87	55.7	0	1	90	0.00	29.889 
06:35	59.8	59.8	59.8	87	55.9	0	0	---	0.00	29.889 
06:40	59.9	59.9	59.9	86	55.7	0	2	90	0.00	29.889 
06:45	59.9	59.9	59.9	85	55.4	0	1	90	0.00	29.890 
06:50	60.1	60.1	60.1	85	55.6	0	2	90	0.00	29.890 
06:55	60.1	60.1	60.1	84	55.2	0	2	90	0.00	29.890 
07:00	60.2	60.2	60.2	84	55.3	0	1	90	0.00	29.893 
07:05	60.5	60.5	60.5	83	55.3	0	2	90	0.00	29.893 
07:10	60.7	60.7	60.7	82	55.2	1	4	90	0.00	29.893 
07:15	60.9	60.9	60.9	82	55.4	0	1	90	0.00	29.896 
07:20	61.0	61.0	61.0	82	55.5	0	2	90	0.00	29.896 
07:25	61.2	61.2	61.2	82	55.7	1	3	90	0.00	29.896 
07:30	61.3	61.3	61.3	82	55.8	0	3	90	0.00	29.893 
07:35	61.3	61.3	61.3	82	55.8	1	3	90	0.00	29.893 
07:40	61.5	61.5	61.5	82	55.9	1	2	90	0.00	29.893 
07:45	61.5	61.5	61.5	81	55.6	1	4	90	0.00	29.887 
07:50	61.5	61.5	61.5	81	55.6	1	3	90	0.00	29.887 
07:55	61.5	61.5	61.5	81	55.6	2	4	90	0.00	29.887 
08:00	61.5	61.5	61.5	81	55.6	1	4	90	0.00	29.890 
08:05	61.6	61.6	61.6	81	55.7	1	4	90	0.00	29.890 
08:10	61.6	61.6	61.6	82	56.0	0	1	90	0.00	29.890 
08:15	61.8	61.8	61.8	82	56.2	0	1	90	0.00	29.893 
08:20	62.0	62.0	62.0	82	56.4	0	2	90	0.00	29.893 
08:25	62.0	62.0	62.0	82	56.4	1	2	90	0.00	29.893 
08:30	62.1	62.1	62.1	82	56.5	0	3	90	0.00	29.892 
08:35	62.4	62.4	62.4	81	56.5	1	3	90	0.00	29.892 
08:40	62.6	62.6	62.6	81	56.7	0	5	90	0.00	29.892 
08:45	62.7	62.7	62.7	81	56.8	1	5	90	0.00	29.890 
08:50	62.9	62.9	62.9	81	57.0	1	4	90	0.00	29.890 
08:55	62.9	62.9	62.9	81	57.0	0	3	90	0.00	29.890 
09:00	63.1	63.1	63.1	81	57.2	2	5	90	0.00	29.884 
09:05	63.2	63.2	63.2	81	57.3	1	4	90	0.00	29.884 
09:10	63.4	63.4	63.4	82	57.8	1	3	90	0.00	29.884 
09:15	63.7	63.7	63.7	81	57.8	1	4	90	0.00	29.887 
09:20	64.2	64.2	64.2	81	58.2	1	3	90	0.00	29.887 
09:25	64.5	64.5	64.5	80	58.2	1	5	90	0.00	29.887 
09:30	65.0	65.0	65.0	80	58.7	1	4	90	0.00	29.894 
09:35	65.3	65.3	65.3	80	59.0	1	3	68	0.00	29.894 
09:40	65.5	65.5	65.5	80	59.2	0	3	68	0.00	29.894 
09:45	65.8	65.8	65.8	79	59.1	1	5	68	0.00	29.894 
09:50	65.8	65.8	65.8	80	59.5	1	3	90	0.00	29.894 
09:55	66.0	66.0	66.0	80	59.6	1	3	90	0.00	29.894 
10:00	66.0	66.0	66.0	80	59.6	1	3	90	0.00	29.892 
10:05	66.0	66.0	66.0	80	59.6	1	3	90	0.00	29.892 
10:10	66.0	66.0	66.0	80	59.6	1	4	90	0.00	29.892 
10:15	66.1	66.1	66.1	81	60.1	1	3	90	0.00	29.894 
10:20	66.1	66.1	66.1	81	60.1	2	5	90	0.00	29.894 
10:25	66.1	66.1	66.1	81	60.1	1	5	90	0.00	29.894 
10:30	66.3	66.3	66.3	81	60.3	1	5	68	0.00	29.898 
10:35	66.3	66.3	66.3	82	60.6	1	5	90	0.00	29.898 
10:40	66.4	66.4	66.4	81	60.4	1	5	135	0.00	29.898 
10:45	66.4	66.4	66.4	82	60.7	2	6	90	0.00	29.893 
10:50	66.4	66.4	66.4	81	60.4	2	6	90	0.00	29.893 
10:55	66.6	66.6	66.6	82	60.9	1	4	90	0.00	29.893 
11:00	66.8	66.8	66.8	81	60.8	1	3	90	0.00	29.894 
11:05	66.8	66.8	66.8	81	60.8	2	6	90	0.00	29.894 
11:10	66.9	66.9	66.9	81	60.9	1	3	90	0.00	29.894 
11:15	67.1	67.1	67.1	80	60.7	1	3	90	0.00	29.899 
11:20	67.3	67.3	67.3	81	61.3	1	4	90	0.00	29.899 
11:25	67.3	67.3	67.3	80	60.9	2	6	90	0.00	29.899 
11:30	67.3	67.3	67.3	80	60.9	2	5	90	0.00	29.899 
11:35	67.3	67.3	67.3	81	61.3	1	4	90	0.00	29.899 
11:40	67.3	67.3	67.3	80	60.9	2	5	90	0.00	29.899 
11:45	67.3	67.3	67.3	80	60.9	2	5	68	0.00	29.904 
11:50	67.4	67.4	67.4	80	61.0	2	6	90	0.00	29.904 
11:55	67.6	67.6	67.6	78	60.5	1	4	90	0.00	29.904 
12:00	67.6	67.6	67.6	78	60.5	2	5	90	0.00	29.898 
12:05	67.6	67.6	67.6	79	60.8	2	6	68	0.00	29.898 
12:10	67.9	67.9	67.9	79	61.1	2	5	90	0.00	29.898 
12:15	67.9	67.9	67.9	78	60.8	3	6	68	0.00	29.901 
12:20	68.1	68.1	68.1	77	60.6	2	4	90	0.00	29.901 
12:25	68.4	68.4	68.4	77	60.9	1	5	90	0.00	29.901 
12:30	68.6	68.6	68.6	76	60.7	2	6	68	0.00	29.907 
12:35	68.9	68.9	68.9	76	61.0	1	4	90	0.00	29.907 
12:40	69.3	69.3	69.3	75	61.0	1	4	90	0.00	29.907 
12:45	69.4	69.4	69.4	75	61.1	1	5	90	0.00	29.909 
12:50	69.4	69.4	69.4	74	60.7	2	6	68	0.00	29.909 
12:55	69.4	69.4	69.4	74	60.7	1	4	90	0.00	29.909 
13:00	69.8	69.8	69.8	75	61.5	2	5	90	0.00	29.897 
13:05	70.4	70.4	70.4	74	61.7	2	6	90	0.00	29.897 
13:10	70.8	70.8	70.8	77	63.2	3	9	112	0.00	29.897 
13:15	71.1	71.1	71.1	70	60.8	3	7	68	0.00	29.885 
13:20	71.1	71.1	71.1	70	60.8	2	5	90	0.00	29.885 
13:25	71.3	71.3	71.3	71	61.4	2	6	90	0.00	29.885 
13:30	71.6	71.6	71.6	69	60.9	2	7	90	0.00	29.880 
13:35	72.1	72.1	72.1	68	60.9	2	7	90	0.00	29.880 
13:40	72.8	72.8	72.8	67	61.2	2	6	90	0.00	29.880 
13:45	73.2	73.2	73.2	66	61.1	3	10	90	0.00	29.879 
13:50	73.7	73.7	73.7	66	61.6	2	5	90	0.00	29.879 
13:55	74.2	74.2	74.2	65	61.7	2	7	90	0.00	29.879 
14:00	74.9	74.9	74.9	65	62.3	2	7	90	0.00	29.879 
14:05	74.9	74.9	74.9	61	60.5	3	7	90	0.00	29.879 
14:10	75.3	75.3	77.5	61	60.9	2	6	90	0.00	29.879 
14:15	75.6	75.6	77.8	59	60.2	2	7	90	0.00	29.869 
14:20	75.4	75.4	77.6	60	60.5	3	10	90	0.00	29.869 
14:25	75.6	75.6	77.7	61	61.2	2	11	112	0.00	29.869 
14:30	75.6	75.6	77.7	60	60.7	3	7	68	0.00	29.865 
14:35	75.4	75.4	77.6	59	60.1	2	7	112	0.00	29.865 
14:40	75.1	75.1	77.4	61	60.7	3	7	90	0.00	29.865 
14:45	74.9	74.9	74.9	61	60.5	2	6	90	0.00	29.861 
14:50	74.7	74.7	74.7	60	59.9	3	5	90	0.00	29.861 
14:55	74.6	74.6	74.6	62	60.7	2	6	68	0.00	29.861 
15:00	74.7	74.7	74.7	60	59.9	2	6	90	0.00	29.862 
15:05	74.7	74.7	74.7	60	59.9	2	5	90	0.00	29.862 
15:10	74.6	74.6	74.6	60	59.8	2	5	112	0.00	29.862 
15:15	74.6	74.6	74.6	60	59.8	2	6	112	0.00	29.853 
15:20	74.7	74.7	74.7	61	60.3	3	7	68	0.00	29.853 
15:25	74.7	74.7	74.7	61	60.3	3	10	90	0.00	29.853 
15:30	74.9	74.9	74.9	61	60.5	3	6	90	0.00	29.857 
15:35	75.1	75.1	77.5	59	59.8	3	10	90	0.00	29.857 
15:40	74.7	74.7	74.7	61	60.3	3	5	90	0.00	29.857 
15:45	74.4	74.4	74.4	60	59.6	3	10	90	0.00	29.857 
15:50	74.4	74.4	74.4	60	59.6	2	6	112	0.00	29.857 
15:55	74.6	74.6	74.6	61	60.2	3	9	90	0.00	29.857 
16:00	74.6	74.6	74.6	61	60.2	3	6	90	0.00	29.854 
16:05	74.9	74.9	74.9	60	60.1	1	3	90	0.00	29.854 
16:10	75.1	75.1	77.4	60	60.2	2	9	112	0.00	29.854 
16:15	75.3	75.3	77.6	59	60.0	3	11	90	0.00	29.846 
16:20	75.3	75.3	77.6	58	59.5	2	7	90	0.00	29.846 
16:25	75.1	75.1	77.4	60	60.2	2	11	112	0.00	29.846 
16:30	75.1	75.1	77.4	60	60.2	1	5	90	0.00	29.839 
16:35	75.1	75.1	77.4	61	60.7	2	7	90	0.00	29.839 
16:40	74.9	74.9	74.9	62	61.0	2	7	68	0.00	29.839 
16:45	74.9	74.9	74.9	61	60.5	3	7	90	0.00	29.837 
16:50	75.1	75.1	77.4	61	60.7	2	7	112	0.00	29.837 
16:55	75.4	75.4	77.6	60	60.5	2	6	112	0.00	29.837 
17:00	75.3	75.3	77.5	60	60.4	2	7	90	0.00	29.833 
17:05	75.1	75.1	77.4	61	60.7	1	4	90	0.00	29.833 
17:10	74.9	74.9	74.9	61	60.5	3	7	90	0.00	29.833 
17:15	75.1	75.1	77.4	61	60.7	2	5	68	0.00	29.828 
17:20	75.6	75.6	77.7	62	61.6	3	9	90	0.00	29.828 
17:25	76.0	76.0	78.0	61	61.6	4	11	90	0.00	29.828 
17:30	76.0	76.0	78.0	59	60.6	4	10	90	0.00	29.821 
17:35	75.4	75.4	77.6	61	61.0	3	9	90	0.00	29.821 
17:40	75.1	75.1	77.4	61	60.7	2	7	135	0.00	29.821 
17:45	75.1	75.1	77.4	60	60.2	3	7	90	0.00	29.820 
17:50	75.3	75.3	77.5	62	61.4	3	6	90	0.00	29.820 
17:55	75.6	75.6	77.7	61	61.2	3	7	68	0.00	29.820 
18:00	75.8	75.8	77.9	60	60.9	3	9	112	0.00	29.817 
18:05	75.4	75.4	77.6	60	60.5	3	5	112	0.00	29.817 
18:10	75.3	75.3	77.5	61	60.9	2	5	112	0.00	29.817 
18:15	75.1	75.1	77.5	59	59.8	2	4	112	0.00	29.815 
18:20	74.9	74.9	74.9	60	60.1	3	9	112	0.00	29.815 
18:25	74.7	74.7	74.7	61	60.3	2	6	112	0.00	29.815 
18:30	74.4	74.4	74.4	59	59.1	3	7	90	0.00	29.809 
18:35	74.4	74.4	74.4	59	59.1	3	9	90	0.00	29.809 
18:40	74.4	74.4	74.4	60	59.6	3	5	90	0.00	29.809 
18:45	74.4	74.4	74.4	61	60.1	2	4	68	0.00	29.802 
18:50	74.6	74.6	74.6	61	60.2	2	6	90	0.00	29.802 
18:55	74.6	74.6	74.6	60	59.8	3	7	90	0.00	29.802 
19:00	74.6	74.6	74.6	61	60.2	3	6	90	0.00	29.806 
19:05	74.4	74.4	74.4	61	60.1	2	5	135	0.00	29.806 
19:10	74.4	74.4	74.4	61	60.1	2	7	90	0.00	29.806 
19:15	74.2	74.2	74.2	62	60.3	1	4	90	0.00	29.810 
19:20	74.0	74.0	74.0	61	59.7	2	6	135	0.00	29.810 
19:25	73.9	73.9	73.9	61	59.6	2	6	112	0.00	29.810 
19:30	73.7	73.7	73.7	62	59.9	3	6	112	0.00	29.808 
19:35	73.5	73.5	73.5	62	59.7	3	11	90	0.00	29.808 
19:40	73.5	73.5	73.5	62	59.7	2	5	112	0.00	29.808 
19:45	73.3	73.3	73.3	62	59.5	1	4	90	0.00	29.812 
19:50	73.2	73.2	73.2	62	59.4	2	6	90	0.00	29.812 
19:55	73.2	73.2	73.2	63	59.8	2	6	90	0.00	29.812 
20:00	73.0	73.0	73.0	63	59.6	1	4	90	0.00	29.814 
20:05	73.0	73.0	73.0	63	59.6	2	4	90	0.00	29.814 
20:10	72.8	72.8	72.8	63	59.5	2	7	68	0.00	29.814 
20:15	72.8	72.8	72.8	64	59.9	2	7	68	0.00	29.804 
20:20	72.7	72.7	72.7	65	60.2	1	4	90	0.00	29.804 
20:25	72.5	72.5	72.5	68	61.3	0	2	90	0.00	29.804 
20:30	71.8	71.8	71.8	70	61.5	1	4	68	0.00	29.803 
20:35	71.3	71.3	71.3	72	61.8	1	3	68	0.00	29.803 
20:40	70.9	70.9	70.9	75	62.6	0	2	68	0.01	29.803 
20:45	70.4	70.4	70.4	77	62.8	1	3	68	0.00	29.800 
20:50	69.8	69.8	69.8	79	63.0	0	2	68	0.00	29.800 
20:55	69.4	69.4	69.4	80	63.0	1	3	68	0.00	29.800 
21:00	69.1	69.1	69.1	81	63.0	0	2	68	0.00	29.799 
21:05	68.9	68.9	68.9	82	63.2	0	2	68	0.01	29.799 
21:10	68.6	68.6	68.6	83	63.2	1	4	68	0.00	29.799 
21:15	68.3	68.3	68.3	83	62.9	2	6	68	0.01	29.787 
21:20	67.9	67.9	67.9	84	62.9	1	4	68	0.00	29.787 
21:25	67.8	67.8	67.8	85	63.1	1	2	68	0.01	29.787 
21:30	67.4	67.4	67.4	86	63.1	0	2	68	0.00	29.794 
21:35	67.3	67.3	67.3	87	63.3	0	2	68	0.01	29.794 
21:40	67.1	67.1	67.1	88	63.4	0	1	68	0.01	29.794 
21:45	67.1	67.1	67.1	88	63.4	0	3	68	0.00	29.798 
21:50	66.9	66.9	66.9	89	63.5	0	2	68	0.01	29.798 
21:55	66.8	66.8	66.8	89	63.4	1	6	90	0.01	29.798 
22:00	66.6	66.6	66.6	89	63.3	1	4	90	0.00	29.800 
22:05	66.4	66.4	66.4	90	63.4	0	3	90	0.01	29.800 
22:10	66.4	66.4	66.4	90	63.4	1	3	90	0.00	29.800 
22:15	66.3	66.3	66.3	90	63.3	1	4	90	0.01	29.791 
22:20	66.1	66.1	66.1	91	63.4	1	4	68	0.00	29.791 
22:25	66.0	66.0	66.0	91	63.3	1	4	68	0.00	29.791 
22:30	65.8	65.8	65.8	91	63.1	1	3	68	0.01	29.788 
22:35	65.8	65.8	65.8	91	63.1	1	4	45	0.00	29.788 
22:40	65.6	65.6	65.6	91	62.9	0	2	45	0.00	29.788 
22:45	65.6	65.6	65.6	91	62.9	1	6	45	0.00	29.788 
22:50	65.6	65.6	65.6	91	62.9	1	4	68	0.00	29.788 
22:55	65.5	65.5	65.5	92	63.1	1	4	68	0.00	29.788 
23:00	65.5	65.5	65.5	92	63.1	2	5	68	0.00	29.787 
23:05	65.6	65.6	65.6	92	63.2	1	4	68	0.00	29.787 
23:10	65.6	65.6	65.6	92	63.2	1	4	68	0.00	29.787 
23:15	65.6	65.6	65.6	92	63.2	1	7	68	0.00	29.782 
23:20	65.6	65.6	65.6	92	63.2	2	6	90	0.00	29.782 
23:25	65.6	65.6	65.6	92	63.2	1	4	68	0.00	29.782 
23:30	65.5	65.5	65.5	92	63.1	2	6	90	0.00	29.783 
23:35	65.5	65.5	65.5	92	63.1	2	5	45	0.00	29.783 
23:40	65.5	65.5	65.5	92	63.1	1	5	68	0.01	29.783 
23:45	65.5	65.5	65.5	92	63.1	2	5	68	0.00	29.779 
23:50	65.5	65.5	65.5	92	63.1	2	4	68	0.00	29.779 
23:55	65.5	65.5	65.5	92	63.1	2	5	68	0.00	29.779 

CoCoRaHS
IN-AL-39
A2 Web Hosting
Creative Commons License
GoDaddy
search engine by freefind advanced

loaded 2018-11-15 15:40:57 • last modified 2010-11-18 10:43:29
Privacy PolicyDisclaimer
• wx.awcolley.com is powered by PmWiki v.2002016 •
• all content (unless otherwise noted) © 2018 A W Colley